Aérodrome :
LOGIN :

S'inscrire | Disclaimer

   EN    FR    IT 

 










Légende :    VFR   VFR Marginal   IFR   IFR Intensif   IFR Très Intensif
Visi : 
Plafond : 
>= 8 km
>= 3000ft
5 à 8 km
1000 à 3000 ft
1500m à 5 km
500 à 1000 ft
800 à 1500m
200 à 500 ft
< 800m
< 200 ft
Symboles :   Orages  Brouillard  Fortes neiges  Fortes précipitations  Vent > 20 kt
SIGMETs :   Divers  Orages  Givrage  Turbulence  Onde Orograph.  Cendres Volcan.







- Altitude de l'aérodrome : 574 ft


LOXT - Brumowski Air Base

METAR N/A
TAF TAF LOXT
Valide du 22 à 12h jusqu'au 22 à 21h UTC


221115Z 2212/2221 06006KT 9999 FEW030 BKN100
BECMG 2212/2214 SCT030 BKN080
TEMPO 2213/2221 6000 -SN FEW010 BKN030
Pas de NOTAMs connus pour ce terrain.
1 SIGMET publié pour la FIR Wien (LOVV) :
 
Givrage fort avec pluie surfondue
LOVV SIGMET 8 VALID 221700/221830 LOWW
LOVV WIEN FIR SEV ICE (FZRA) FCST WI N4820 E01550 - N4720 E01455 - N4715 E01300 - N4820 E01410 - N4820 E01550 SFC/3000FT MOV E NC=



MET'MAP, la Météo Aéronautique d'un coup d'oeil ! - Copyright ORBIFLY Décembre 2007 - Disclaimer

ORBIFLY MET'MAP TEAM :

Programmation & Développement : Alexandra Zaïnal
Conception & Développement : Baudouin d'Aumeries
Co-Programmation & Développement : Marc-Olivier Méhu
Soutien technique & logistique : Manuel Goepfert

Contact : metmap@orbifly.com




SOURCES & CREDITS :

   NOAA